Time;durP1;ratioP1;P1;durP2;ratioP2;P2;SDS_P1;SDS_P2;PMS_P1;PMS_P2;Temp;Humidity;BMP_temperature;BMP_pressure;BME280_temperature;BME280_humidity;BME280_pressure;Samples;Min_cycle;Max_cycle;Signal;HPM_P1;HPM_P2
2024/01/12 00:00:37;;;;;;;33.95;12.80;;;;;;;0.94;100.00;103243.50;5078222;28;20122;-84
2024/01/12 00:03:04;;;;;;;22.13;7.77;;;;;;;0.95;100.00;103246.06;5077747;28;20036;-83
2024/01/12 00:05:32;;;;;;;34.45;14.63;;;;;;;0.97;100.00;103237.94;5044892;28;20625;-83
2024/01/12 00:07:58;;;;;;;27.13;10.50;;;;;;;0.96;100.00;103241.56;5061010;28;20040;-84
2024/01/12 00:10:23;;;;;;;30.10;12.27;;;;;;;0.97;100.00;103241.47;5078027;28;20043;-83
2024/01/12 00:12:49;;;;;;;23.57;9.63;;;;;;;0.98;100.00;103240.53;5044622;28;20032;-83
2024/01/12 00:15:14;;;;;;;32.50;13.27;;;;;;;0.99;100.00;103244.94;5078584;28;20029;-83
2024/01/12 00:17:40;;;;;;;29.80;11.50;;;;;;;0.99;100.00;103244.94;5077235;28;20043;-83
2024/01/12 00:20:06;;;;;;;27.97;11.30;;;;;;;0.97;100.00;103249.50;5077876;28;20055;-83
2024/01/12 00:22:31;;;;;;;26.70;10.98;;;;;;;0.99;100.00;103249.41;5077275;28;20032;-83
2024/01/12 00:24:57;;;;;;;32.50;12.80;;;;;;;1.00;100.00;103240.44;5061275;28;20032;-83
2024/01/12 00:27:22;;;;;;;24.53;10.07;;;;;;;0.97;100.00;103241.47;5077585;28;20036;-83
2024/01/12 00:29:48;;;;;;;35.20;13.63;;;;;;;0.97;100.00;103241.47;5043922;28;20048;-83
2024/01/12 00:32:13;;;;;;;30.25;12.32;;;;;;;0.96;100.00;103245.13;5077750;28;20020;-83
2024/01/12 00:34:38;;;;;;;34.65;13.32;;;;;;;0.94;100.00;103240.81;5095343;28;20465;-84
2024/01/12 00:37:04;;;;;;;28.40;11.70;;;;;;;0.96;100.00;103244.25;5077353;28;20116;-84
2024/01/12 00:39:29;;;;;;;34.97;12.63;;;;;;;0.96;100.00;103242.44;5077100;28;20580;-83
2024/01/12 00:41:55;;;;;;;29.67;12.43;;;;;;;0.97;100.00;103248.66;5060774;28;20487;-83
2024/01/12 00:44:21;;;;;;;34.97;13.67;;;;;;;0.96;100.00;103257.59;5095655;28;20460;-83
2024/01/12 00:46:50;;;;;;;33.38;13.10;;;;;;;0.94;100.00;103239.00;5044258;28;20306;-83
2024/01/12 00:49:23;;;;;;;25.92;10.88;;;;;;;0.93;100.00;103239.97;5060779;28;20515;-83
2024/01/12 00:51:49;;;;;;;30.63;12.10;;;;;;;0.91;100.00;103241.84;5076733;28;20089;-83
2024/01/12 00:54:15;;;;;;;24.47;10.30;;;;;;;0.93;100.00;103257.78;5095069;28;20111;-83
2024/01/12 00:56:41;;;;;;;28.45;9.30;;;;;;;0.95;100.00;103248.75;5076928;28;20039;-83
2024/01/12 00:59:07;;;;;;;37.27;13.20;;;;;;;0.94;100.00;103255.03;5076455;28;20032;-83
2024/01/12 01:01:33;;;;;;;28.95;12.05;;;;;;;0.95;100.00;103248.75;5076766;28;20024;-83
2024/01/12 01:04:00;;;;;;;27.38;10.45;;;;;;;0.97;100.00;103256.66;5060168;28;20465;-83
2024/01/12 01:06:26;;;;;;;29.33;12.80;;;;;;;0.94;100.00;103256.84;5076850;28;20036;-84
2024/01/12 01:08:52;;;;;;;27.88;11.38;;;;;;;0.92;100.00;103251.59;5060289;28;20270;-83
2024/01/12 01:11:17;;;;;;;35.40;14.82;;;;;;;0.90;100.00;103253.53;5043745;28;20028;-83
2024/01/12 01:13:43;;;;;;;32.00;12.07;;;;;;;0.92;100.00;103248.06;5076580;28;20046;-83
2024/01/12 01:16:09;;;;;;;30.40;11.63;;;;;;;0.88;100.00;103253.59;5059668;28;20494;-83
2024/01/12 01:18:38;;;;;;;29.38;10.95;;;;;;;0.88;100.00;103245.56;5059475;28;20090;-83
2024/01/12 01:21:03;;;;;;;37.47;15.07;;;;;;;0.89;100.00;103251.78;5059390;28;20032;-83
2024/01/12 01:23:29;;;;;;;35.73;13.93;;;;;;;0.88;100.00;103256.25;5060404;28;20039;-83
2024/01/12 01:25:54;;;;;;;18.30;7.63;;;;;;;0.91;100.00;103259.72;5059905;28;20040;-83
2024/01/12 01:28:20;;;;;;;33.30;13.38;;;;;;;0.91;100.00;103260.56;5059428;28;20033;-83
2024/01/12 01:30:45;;;;;;;27.77;11.27;;;;;;;0.92;100.00;103269.47;5075964;28;20135;-83
2024/01/12 01:33:11;;;;;;;26.43;10.13;;;;;;;0.94;100.00;103267.53;5059665;28;20024;-83
2024/01/12 01:35:36;;;;;;;27.85;10.77;;;;;;;0.99;100.00;103281.47;5094643;28;20447;-83
2024/01/12 01:38:05;;;;;;;24.20;10.23;;;;;;;1.01;100.00;103285.78;5076158;28;20059;-83
2024/01/12 01:40:30;;;;;;;21.63;7.47;;;;;;;1.04;100.00;103282.94;5059390;28;20475;-83
2024/01/12 01:42:56;;;;;;;25.97;9.33;;;;;;;1.03;100.00;103288.38;5059499;28;20120;-83
2024/01/12 01:45:21;;;;;;;19.80;7.57;;;;;;;1.04;100.00;103293.63;5075945;28;20484;-83
2024/01/12 01:47:47;;;;;;;34.57;13.53;;;;;;;1.00;100.00;103299.25;5094169;28;20101;-84
2024/01/12 01:50:15;;;;;;;27.20;11.07;;;;;;;0.98;100.00;103299.34;5075758;28;20059;-83
2024/01/12 01:52:43;;;;;;;30.95;11.90;;;;;;;0.97;100.00;103294.94;5094196;28;20059;-83
2024/01/12 01:55:11;;;;;;;29.85;11.05;;;;;;;0.98;100.00;103290.47;5075585;28;20028;-84
2024/01/12 01:57:39;;;;;;;29.17;12.03;;;;;;;0.97;100.00;103281.56;5093795;28;20031;-83
2024/01/12 02:00:05;;;;;;;31.90;11.85;;;;;;;0.99;100.00;103284.16;5059463;28;20369;-83
2024/01/12 02:02:31;;;;;;;29.05;11.70;;;;;;;1.01;100.00;103292.97;5059145;28;20042;-83
2024/01/12 02:04:58;;;;;;;27.13;10.45;;;;;;;1.00;100.00;103284.06;5059621;28;20036;-83
2024/01/12 02:07:23;;;;;;;20.53;8.57;;;;;;;1.00;100.00;103277.88;5075872;28;20032;-83
2024/01/12 02:09:49;;;;;;;25.17;9.85;;;;;;;1.00;100.00;103280.53;5058942;28;20032;-83
2024/01/12 02:12:14;;;;;;;32.78;13.35;;;;;;;1.00;100.00;103272.53;5042030;28;20123;-84
2024/01/12 02:14:40;;;;;;;26.10;10.53;;;;;;;1.02;100.00;103267.97;5075631;28;20042;-83
2024/01/12 02:17:05;;;;;;;33.58;13.25;;;;;;;0.98;100.00;103266.41;5058857;28;20031;-83
2024/01/12 02:19:30;;;;;;;35.42;14.00;;;;;;;0.97;100.00;103256.66;5075840;28;20081;-83
2024/01/12 02:21:56;;;;;;;33.50;14.13;;;;;;;0.94;100.00;103259.53;5075352;28;20032;-83
2024/01/12 02:24:21;;;;;;;35.90;15.13;;;;;;;0.93;100.00;103256.00;5076257;28;20479;-83
2024/01/12 02:26:47;;;;;;;29.43;11.73;;;;;;;0.93;100.00;103269.38;5058861;28;20067;-83
2024/01/12 02:29:12;;;;;;;22.67;8.97;;;;;;;0.96;100.00;103271.84;5058752;28;20078;-83
2024/01/12 02:31:39;;;;;;;34.92;13.10;;;;;;;0.94;100.00;103268.41;5058921;28;20089;-83
2024/01/12 02:34:05;;;;;;;38.13;14.60;;;;;;;0.98;100.00;103271.75;5075746;28;20028;-84
2024/01/12 02:36:30;;;;;;;33.08;13.20;;;;;;;0.97;100.00;103276.22;5075373;28;20285;-83
2024/01/12 02:38:55;;;;;;;33.40;13.67;;;;;;;0.98;100.00;103272.59;5075165;28;20056;-83
2024/01/12 02:41:21;;;;;;;26.80;11.30;;;;;;;0.99;100.00;103269.00;5058489;28;20478;-83
2024/01/12 02:43:47;;;;;;;31.17;12.60;;;;;;;0.99;100.00;103274.34;5093270;28;20021;-84
2024/01/12 02:46:12;;;;;;;33.20;12.13;;;;;;;1.02;100.00;103271.47;5075360;28;20114;-84
2024/01/12 02:48:38;;;;;;;30.23;12.17;;;;;;;1.02;100.00;103271.47;5075187;28;20119;-84
2024/01/12 02:51:04;;;;;;;27.48;11.40;;;;;;;1.04;100.00;103268.72;5075345;28;20028;-84
2024/01/12 02:53:29;;;;;;;39.30;14.60;;;;;;;1.02;100.00;103254.59;5093472;28;20039;-84
2024/01/12 02:55:55;;;;;;;30.10;12.07;;;;;;;1.03;100.00;103256.28;5058712;28;20028;-85
2024/01/12 02:58:20;;;;;;;30.63;12.03;;;;;;;1.02;100.00;103255.44;5058263;28;20484;-85
2024/01/12 03:00:45;;;;;;;34.37;14.00;;;;;;;1.02;100.00;103246.56;5074933;28;20024;-85
2024/01/12 03:03:11;;;;;;;30.67;11.77;;;;;;;1.01;100.00;103250.19;5058557;28;20122;-84
2024/01/12 03:05:36;;;;;;;41.57;14.47;;;;;;;1.00;100.00;103241.28;5074960;28;20032;-84
2024/01/12 03:08:02;;;;;;;30.97;13.07;;;;;;;1.00;100.00;103243.09;5075208;28;20046;-85
2024/01/12 03:10:27;;;;;;;31.42;12.88;;;;;;;0.98;100.00;103240.53;5092980;28;20036;-84
2024/01/12 03:12:52;;;;;;;40.50;15.17;;;;;;;1.01;100.00;103247.50;5093258;28;20028;-84
2024/01/12 03:15:19;;;;;;;34.93;13.03;;;;;;;1.03;100.00;103248.25;5041798;28;20032;-84
2024/01/12 03:17:44;;;;;;;20.83;8.35;;;;;;;1.04;100.00;103248.16;5075579;28;20028;-84
2024/01/12 03:20:10;;;;;;;24.80;10.70;;;;;;;1.05;100.00;103249.91;5058090;28;20475;-84
2024/01/12 03:22:36;;;;;;;28.50;11.33;;;;;;;1.06;100.00;103245.41;5076686;28;20036;-85
2024/01/12 03:25:02;;;;;;;30.58;12.63;;;;;;;1.04;100.00;103242.81;5096961;28;20026;-85
2024/01/12 03:27:27;;;;;;;36.78;14.38;;;;;;;1.03;100.00;103243.78;5078970;28;20118;-84
2024/01/12 03:29:53;;;;;;;31.53;12.20;;;;;;;1.03;100.00;103237.56;5078115;28;20059;-84
2024/01/12 03:32:20;;;;;;;25.13;9.48;;;;;;;1.07;100.00;103240.94;5078850;28;20031;-85
2024/01/12 03:34:46;;;;;;;32.13;12.52;;;;;;;1.05;100.00;103244.56;5061975;28;20123;-85
2024/01/12 03:37:11;;;;;;;32.90;12.77;;;;;;;1.07;100.00;103235.59;5044992;28;20055;-85
2024/01/12 03:39:36;;;;;;;29.00;11.23;;;;;;;1.06;100.00;103240.06;5096646;28;20056;-84
2024/01/12 03:42:02;;;;;;;30.90;11.93;;;;;;;1.06;100.00;103245.41;5078533;28;20472;-84
2024/01/12 03:44:27;;;;;;;29.27;12.20;;;;;;;1.05;100.00;103244.56;5078419;28;20031;-84
2024/01/12 03:46:53;;;;;;;26.90;11.10;;;;;;;1.09;100.00;103244.38;5078228;28;20127;-84
2024/01/12 03:49:18;;;;;;;26.20;10.20;;;;;;;1.08;100.00;103238.16;5078017;28;20032;-85
2024/01/12 03:51:44;;;;;;;24.73;10.37;;;;;;;1.10;100.00;103241.59;5045751;28;20028;-85
2024/01/12 03:54:10;;;;;;;27.40;11.23;;;;;;;1.11;100.00;103227.28;5044874;28;20040;-84
2024/01/12 03:56:35;;;;;;;24.95;10.65;;;;;;;1.09;100.00;103221.16;5061510;28;20028;-84
2024/01/12 03:59:01;;;;;;;29.67;11.93;;;;;;;1.09;100.00;103233.66;5077964;28;20035;-84
2024/01/12 04:01:26;;;;;;;26.83;10.95;;;;;;;1.09;100.00;103231.84;5061406;28;20101;-83
2024/01/12 04:03:52;;;;;;;23.00;8.73;;;;;;;1.10;100.00;103233.56;5078050;28;20062;-85
2024/01/12 04:06:18;;;;;;;20.07;8.33;;;;;;;1.10;100.00;103211.31;5077820;28;20036;-85
2024/01/12 04:08:44;;;;;;;39.47;13.95;;;;;;;1.10;100.00;103216.69;5061398;28;20587;-85
2024/01/12 04:11:20;;;;;;;25.37;11.40;;;;;;;1.12;100.00;103223.66;5096322;28;20123;-85
2024/01/12 04:13:45;;;;;;;25.00;10.35;;;;;;;1.11;100.00;103227.28;5077979;28;20031;-84
2024/01/12 04:16:10;;;;;;;28.67;11.47;;;;;;;1.12;100.00;103223.66;5077787;28;20471;-84
2024/01/12 04:18:36;;;;;;;23.07;9.80;;;;;;;1.13;100.00;103227.19;5077639;28;20032;-84
2024/01/12 04:21:01;;;;;;;21.33;8.80;;;;;;;1.16;100.00;103222.50;5044592;28;20037;-84
2024/01/12 04:23:29;;;;;;;25.25;8.68;;;;;;;1.15;100.00;103219.91;5077748;28;20064;-85
2024/01/12 04:25:55;;;;;;;29.25;12.40;;;;;;;1.14;100.00;103218.22;5061610;28;20529;-84
2024/01/12 04:28:22;;;;;;;31.33;13.50;;;;;;;1.12;100.00;103226.34;5077645;28;20114;-84
2024/01/12 04:30:48;;;;;;;28.02;11.85;;;;;;;1.13;100.00;103222.69;5073831;28;20060;-85
2024/01/12 04:33:14;;;;;;;31.92;12.93;;;;;;;1.14;100.00;103220.88;5040223;28;20036;-84
2024/01/12 04:35:40;;;;;;;28.08;11.38;;;;;;;1.12;100.00;103226.34;5057618;28;20029;-84
2024/01/12 04:38:05;;;;;;;30.55;11.75;;;;;;;1.14;100.00;103232.44;5057375;28;20481;-84
2024/01/12 04:40:30;;;;;;;27.77;11.70;;;;;;;1.13;100.00;103230.69;5057216;28;20033;-84
2024/01/12 04:42:56;;;;;;;17.90;7.40;;;;;;;1.15;100.00;103235.97;5040641;28;20408;-85
2024/01/12 04:45:21;;;;;;;26.03;9.97;;;;;;;1.15;100.00;103230.59;5073693;28;20029;-84
2024/01/12 04:47:49;;;;;;;26.23;9.30;;;;;;;1.15;100.00;103231.50;5056751;28;20035;-84
2024/01/12 04:50:14;;;;;;;26.55;10.63;;;;;;;1.15;100.00;103228.81;5073781;28;20731;-85
2024/01/12 04:52:40;;;;;;;31.40;12.13;;;;;;;1.14;100.00;103232.44;5057532;28;20048;-85
2024/01/12 04:55:06;;;;;;;31.30;11.48;;;;;;;1.14;100.00;103232.44;5073672;28;20052;-84
2024/01/12 04:57:31;;;;;;;25.60;10.20;;;;;;;1.15;100.00;103228.81;5073196;28;20064;-85
2024/01/12 04:59:56;;;;;;;35.77;12.90;;;;;;;1.15;100.00;103230.59;5056818;28;20028;-85
2024/01/12 05:02:22;;;;;;;34.33;12.18;;;;;;;1.16;100.00;103227.84;5074677;28;20028;-84
2024/01/12 05:04:47;;;;;;;25.60;10.50;;;;;;;1.15;100.00;103226.13;5073698;28;20539;-84
2024/01/12 05:07:13;;;;;;;25.53;10.00;;;;;;;1.16;100.00;103235.84;5056642;28;20090;-84
2024/01/12 05:09:41;;;;;;;27.53;10.93;;;;;;;1.16;100.00;103227.00;5056985;28;20059;-84
2024/01/12 05:12:07;;;;;;;25.17;10.57;;;;;;;1.15;100.00;103226.13;5073063;28;20024;-84
2024/01/12 05:14:33;;;;;;;20.52;8.23;;;;;;;1.17;100.00;103218.88;5056389;28;20052;-84
2024/01/12 05:16:58;;;;;;;31.40;11.97;;;;;;;1.16;100.00;103213.63;5074425;28;20058;-84
2024/01/12 05:19:23;;;;;;;30.40;12.52;;;;;;;1.15;100.00;103210.09;5056671;28;20278;-84
2024/01/12 05:21:49;;;;;;;29.83;11.77;;;;;;;1.17;100.00;103199.31;5056424;28;20527;-84
2024/01/12 05:24:15;;;;;;;28.47;11.10;;;;;;;1.18;100.00;103209.91;5056916;28;20031;-85
2024/01/12 05:26:41;;;;;;;28.83;11.35;;;;;;;1.18;100.00;103209.91;5056134;28;20060;-84
2024/01/12 05:29:08;;;;;;;28.93;11.37;;;;;;;1.20;100.00;103217.81;5072768;28;20067;-85
2024/01/12 05:31:34;;;;;;;26.58;11.50;;;;;;;1.19;100.00;103211.59;5053004;28;20060;-85
2024/01/12 05:33:59;;;;;;;33.53;12.32;;;;;;;1.18;100.00;103209.91;5055719;28;20051;-84
2024/01/12 05:36:25;;;;;;;34.33;13.10;;;;;;;1.19;100.00;103208.91;5052879;28;20033;-85
2024/01/12 05:38:50;;;;;;;32.73;12.80;;;;;;;1.18;100.00;103209.03;5036287;28;20033;-85
2024/01/12 05:41:16;;;;;;;26.73;10.17;;;;;;;1.17;100.00;103212.66;5036180;28;20473;-85
2024/01/12 05:43:48;;;;;;;26.85;9.52;;;;;;;1.20;100.00;103205.31;5036321;28;20033;-84
2024/01/12 05:46:13;;;;;;;22.37;9.20;;;;;;;1.19;100.00;103203.56;5053224;28;20123;-85
2024/01/12 05:48:41;;;;;;;25.55;9.00;;;;;;;1.22;100.00;103214.06;5052703;28;20068;-85
2024/01/12 05:51:06;;;;;;;19.63;7.93;;;;;;;1.24;100.00;103214.00;5052504;28;20120;-84
2024/01/12 05:53:31;;;;;;;23.88;8.90;;;;;;;1.27;100.00;103218.28;5036162;28;20029;-85
2024/01/12 05:55:57;;;;;;;26.75;10.10;;;;;;;1.27;100.00;103226.31;5036231;28;20040;-85
2024/01/12 05:58:22;;;;;;;24.90;9.67;;;;;;;1.29;100.00;103219.06;5036643;28;20098;-85
2024/01/12 06:00:50;;;;;;;22.27;8.20;;;;;;;1.30;100.00;103220.75;5053902;28;20502;-85
2024/01/12 06:03:15;;;;;;;26.27;10.98;;;;;;;1.32;100.00;103227.75;5052459;28;20036;-84
2024/01/12 06:05:41;;;;;;;23.57;9.03;;;;;;;1.33;100.00;103225.91;5052215;28;20041;-84
2024/01/12 06:08:07;;;;;;;26.20;9.13;;;;;;;1.33;100.00;103233.94;5052364;28;20521;-85
2024/01/12 06:10:32;;;;;;;22.50;8.70;;;;;;;1.36;100.00;103231.09;5052298;28;20090;-85
2024/01/12 06:12:57;;;;;;;24.40;8.67;;;;;;;1.35;100.00;103235.56;5036355;28;20033;-84
2024/01/12 06:15:23;;;;;;;24.57;9.63;;;;;;;1.36;100.00;103239.97;5018935;28;20037;-84
2024/01/12 06:17:48;;;;;;;20.70;7.50;;;;;;;1.38;100.00;103219.34;5052367;28;20032;-84
2024/01/12 06:20:14;;;;;;;24.15;8.27;;;;;;;1.38;100.00;103227.34;5035413;28;20040;-85
2024/01/12 06:22:39;;;;;;;20.70;8.33;;;;;;;1.40;100.00;103228.13;5052208;28;20037;-84
2024/01/12 06:25:05;;;;;;;21.47;9.10;;;;;;;1.41;100.00;103234.34;5051954;28;20037;-84
2024/01/12 06:27:31;;;;;;;26.45;9.07;;;;;;;1.39;100.00;103234.44;5052259;28;20110;-84
2024/01/12 06:29:59;;;;;;;26.30;10.67;;;;;;;1.38;100.00;103240.72;5025285;28;20088;-84
2024/01/12 06:32:24;;;;;;;21.63;7.40;;;;;;;1.40;100.00;103235.28;5055886;28;20028;-85
2024/01/12 06:34:50;;;;;;;25.13;10.53;;;;;;;1.38;100.00;103240.72;5072425;28;20431;-83
2024/01/12 06:37:15;;;;;;;22.20;8.57;;;;;;;1.41;100.00;103245.03;5072266;28;20035;-84
2024/01/12 06:39:41;;;;;;;23.57;9.77;;;;;;;1.41;100.00;103245.03;5055620;28;20549;-84
2024/01/12 06:42:06;;;;;;;19.33;6.90;;;;;;;1.42;100.00;103262.81;5071698;28;20115;-84
2024/01/12 06:44:32;;;;;;;23.20;8.80;;;;;;;1.44;100.00;103260.03;5055279;28;20029;-84
2024/01/12 06:46:57;;;;;;;24.13;9.07;;;;;;;1.43;100.00;103248.47;5055130;28;20029;-86
2024/01/12 06:49:22;;;;;;;24.40;8.53;;;;;;;1.45;100.00;103245.69;5055643;28;20059;-84
2024/01/12 06:51:48;;;;;;;27.98;9.40;;;;;;;1.44;100.00;103252.88;5055816;28;20381;-84
2024/01/12 06:54:13;;;;;;;25.63;9.07;;;;;;;1.44;100.00;103250.19;5072042;28;20047;-85
2024/01/12 06:56:39;;;;;;;19.57;6.60;;;;;;;1.47;100.00;103250.00;5072919;28;20099;-85
2024/01/12 06:59:05;;;;;;;22.50;8.40;;;;;;;1.50;100.00;103256.97;5075877;28;20032;-84
2024/01/12 07:01:31;;;;;;;21.33;7.33;;;;;;;1.53;100.00;103259.47;5075612;28;20040;-85
2024/01/12 07:03:56;;;;;;;22.85;8.27;;;;;;;1.52;100.00;103260.41;5059166;28;20031;-84
2024/01/12 07:06:22;;;;;;;27.10;8.37;;;;;;;1.52;100.00;103263.09;5075818;28;20444;-83
2024/01/12 07:08:47;;;;;;;17.67;7.03;;;;;;;1.54;100.00;103255.84;5075204;28;20477;-84
2024/01/12 07:11:13;;;;;;;23.65;8.85;;;;;;;1.53;100.00;103248.75;5058730;28;20489;-84
2024/01/12 07:13:38;;;;;;;28.50;9.27;;;;;;;1.54;100.00;103245.97;5042155;28;20375;-84
2024/01/12 07:16:04;;;;;;;18.37;6.23;;;;;;;1.56;100.00;103253.91;5075444;28;20048;-84
2024/01/12 07:18:29;;;;;;;23.00;9.07;;;;;;;1.55;100.00;103253.06;5058528;28;20029;-84
2024/01/12 07:20:57;;;;;;;21.13;8.00;;;;;;;1.57;100.00;103251.13;5075478;28;20464;-84
2024/01/12 07:23:22;;;;;;;16.92;5.63;;;;;;;1.62;100.00;103234.78;5076501;28;20033;-83
2024/01/12 07:25:48;;;;;;;23.77;8.87;;;;;;;1.65;100.00;103237.25;5058377;28;20067;-84
2024/01/12 07:28:13;;;;;;;26.02;8.02;;;;;;;1.66;100.00;103244.34;5058447;28;20043;-84
2024/01/12 07:30:40;;;;;;;24.07;8.43;;;;;;;1.65;100.00;103223.88;5058359;28;20056;-83
2024/01/12 07:33:06;;;;;;;25.55;8.55;;;;;;;1.64;100.00;103222.19;5074975;28;20046;-84
2024/01/12 07:35:31;;;;;;;24.33;7.50;;;;;;;1.64;100.00;103222.19;5058010;28;20464;-84
2024/01/12 07:37:56;;;;;;;26.57;7.73;;;;;;;1.62;100.00;103225.91;5058444;28;20029;-85
2024/01/12 07:40:22;;;;;;;17.97;7.57;;;;;;;1.64;100.00;103227.53;5074685;28;20494;-84
2024/01/12 07:42:47;;;;;;;27.87;8.40;;;;;;;1.64;100.00;103230.22;5074808;28;20056;-83
2024/01/12 07:45:13;;;;;;;20.03;7.73;;;;;;;1.66;100.00;103227.44;5075778;28;20469;-85
2024/01/12 07:47:38;;;;;;;25.08;8.30;;;;;;;1.69;100.00;103228.09;5057703;28;20545;-85
2024/01/12 07:50:06;;;;;;;19.67;7.53;;;;;;;1.72;100.00;103229.72;5058842;28;20040;-84
2024/01/12 07:52:32;;;;;;;19.40;6.28;;;;;;;1.74;100.00;103230.47;5074563;28;20062;-83
2024/01/12 07:54:57;;;;;;;26.67;7.53;;;;;;;1.75;100.00;103224.16;5074724;28;20036;-84
2024/01/12 07:57:22;;;;;;;28.83;8.87;;;;;;;1.77;100.00;103232.94;5074595;28;20039;-83
2024/01/12 07:59:48;;;;;;;17.00;5.97;;;;;;;1.80;100.00;103229.22;5074336;28;20677;-83
2024/01/12 08:02:14;;;;;;;20.47;6.90;;;;;;;1.83;100.00;103218.31;5057838;28;20111;-83
2024/01/12 08:04:40;;;;;;;21.30;7.35;;;;;;;1.86;100.00;103218.09;5057885;28;20032;-83
2024/01/12 08:07:06;;;;;;;20.17;7.57;;;;;;;1.86;100.00;103218.97;5074426;28;20094;-83
2024/01/12 08:09:31;;;;;;;24.08;7.63;;;;;;;1.89;100.00;103215.22;5074421;28;20488;-83
2024/01/12 08:11:57;;;;;;;17.60;5.63;;;;;;;1.91;100.00;103219.53;5057862;28;20075;-84
2024/01/12 08:14:22;;;;;;;23.23;6.77;;;;;;;1.92;100.00;103228.44;5074675;28;20060;-83
2024/01/12 08:16:48;;;;;;;23.93;8.07;;;;;;;1.93;100.00;103232.81;5075172;28;20039;-83
2024/01/12 08:19:13;;;;;;;18.13;6.50;;;;;;;1.96;100.00;103224.56;5075476;28;20086;-83
2024/01/12 08:21:39;;;;;;;29.90;8.77;;;;;;;1.96;100.00;103235.28;5074345;28;20024;-83
2024/01/12 08:24:07;;;;;;;21.90;7.57;;;;;;;2.03;100.00;103230.41;5074422;28;20050;-83
2024/01/12 08:26:32;;;;;;;25.27;7.95;;;;;;;2.04;100.00;103229.44;5074306;28;20028;-83
2024/01/12 08:29:01;;;;;;;15.70;5.37;;;;;;;2.09;100.00;103232.66;5057733;28;20034;-83
2024/01/12 08:31:28;;;;;;;18.85;6.72;;;;;;;2.12;100.00;103229.78;5057201;28;20091;-83
2024/01/12 08:33:53;;;;;;;24.95;8.15;;;;;;;2.17;100.00;103230.34;5041012;28;20059;-83
2024/01/12 08:36:19;;;;;;;20.80;7.87;;;;;;;2.15;100.00;103236.78;5074862;28;20037;-83
2024/01/12 08:38:44;;;;;;;17.23;5.93;;;;;;;2.18;100.00;103237.41;5073962;28;20102;-83
2024/01/12 08:41:10;;;;;;;21.13;6.17;;;;;;;2.20;100.00;103235.50;5057153;28;20036;-83
2024/01/12 08:43:35;;;;;;;12.53;4.63;;;;;;;2.25;100.00;103243.25;5075408;28;20025;-83
2024/01/12 08:46:00;;;;;;;17.58;7.25;;;;;;;2.26;100.00;103256.53;5040806;28;20476;-83
2024/01/12 08:48:26;;;;;;;20.23;7.13;;;;;;;2.30;100.00;103245.59;5073632;28;20032;-83
2024/01/12 08:50:51;;;;;;;21.23;7.23;;;;;;;2.31;100.00;103250.88;5057125;28;20044;-83
2024/01/12 08:53:16;;;;;;;18.03;7.27;;;;;;;2.34;100.00;103244.44;5057530;28;20029;-83
2024/01/12 08:55:42;;;;;;;20.80;6.53;;;;;;;2.38;100.00;103241.47;5073477;28;20029;-83
2024/01/12 08:58:08;;;;;;;16.27;6.35;;;;;;;2.41;100.00;103232.38;5040338;28;20033;-83
2024/01/12 09:00:34;;;;;;;17.88;6.25;;;;;;;2.44;100.00;103232.16;5057065;28;20033;-83
2024/01/12 09:02:59;;;;;;;17.38;6.65;;;;;;;2.48;100.00;103233.69;5057551;28;20039;-84
2024/01/12 09:05:25;;;;;;;16.90;6.95;;;;;;;2.53;100.00;103238.72;5056491;28;20028;-83
2024/01/12 09:07:50;;;;;;;16.73;6.40;;;;;;;2.57;100.00;103240.19;5074580;28;20047;-84
2024/01/12 09:10:16;;;;;;;19.93;6.27;;;;;;;2.60;100.00;103248.06;5056767;28;20090;-83
2024/01/12 09:12:41;;;;;;;20.30;5.43;;;;;;;2.65;100.00;103245.91;5072839;28;20078;-83
2024/01/12 09:15:08;;;;;;;16.67;6.83;;;;;;;2.71;100.00;103237.44;5056229;28;20057;-83
2024/01/12 09:17:34;;;;;;;19.13;6.88;;;;;;;2.77;100.00;103246.91;5056517;28;20056;-83
2024/01/12 09:19:59;;;;;;;12.93;5.30;;;;;;;2.84;100.00;103240.16;5056127;28;20036;-84
2024/01/12 09:22:25;;;;;;;15.98;4.60;;;;;;;2.89;100.00;103239.84;5055970;28;20291;-84
2024/01/12 09:24:50;;;;;;;20.23;7.13;;;;;;;2.94;100.00;103241.25;5073074;28;20032;-83
2024/01/12 09:27:15;;;;;;;15.70;6.23;;;;;;;2.98;100.00;103244.56;5073135;28;20032;-83
2024/01/12 09:29:41;;;;;;;22.70;7.77;;;;;;;3.04;100.00;103237.91;5055888;28;20052;-83
2024/01/12 09:32:07;;;;;;;19.70;7.95;;;;;;;3.06;100.00;103234.16;5074611;28;20036;-83
2024/01/12 09:34:32;;;;;;;27.50;8.20;;;;;;;3.02;100.00;103235.34;5056314;28;20069;-83
2024/01/12 09:36:58;;;;;;;20.90;6.90;;;;;;;3.03;100.00;103241.53;5039892;28;20028;-83
2024/01/12 09:39:24;;;;;;;19.23;5.40;;;;;;;3.09;100.00;103242.00;5072373;28;20543;-83
2024/01/12 09:41:49;;;;;;;16.90;5.20;;;;;;;3.14;100.00;103245.22;5056094;28;20028;-83
2024/01/12 09:44:20;;;;;;;23.63;7.05;;;;;;;3.22;100.00;103247.38;5072783;28;20040;-83
2024/01/12 09:46:59;;;;;;;23.08;8.13;;;;;;;3.26;100.00;103243.50;5073877;28;20464;-83
2024/01/12 09:49:29;;;;;;;13.88;5.32;;;;;;;3.30;100.00;103244.97;5072666;28;20046;-83
2024/01/12 09:52:00;;;;;;;22.08;7.82;;;;;;;3.27;100.00;103242.50;5073903;28;20071;-83
2024/01/12 09:54:26;;;;;;;19.88;8.10;;;;;;;3.27;100.00;103239.84;5072867;28;20035;-84
2024/01/12 09:56:54;;;;;;;23.70;7.13;;;;;;;3.30;100.00;103238.75;5072190;28;20029;-83
2024/01/12 09:59:27;;;;;;;19.70;6.82;;;;;;;3.33;100.00;103233.19;5072848;28;20361;-83
2024/01/12 10:01:52;;;;;;;22.70;7.00;;;;;;;3.33;100.00;103239.38;5071970;28;20086;-83
2024/01/12 10:04:18;;;;;;;24.23;8.20;;;;;;;3.34;100.00;103227.69;5073640;28;20025;-83
2024/01/12 10:06:44;;;;;;;17.57;7.07;;;;;;;3.37;100.00;103231.16;5055919;28;20421;-83
2024/01/12 10:09:09;;;;;;;25.75;7.75;;;;;;;3.36;100.00;103227.59;5056459;28;20039;-83
2024/01/12 10:11:35;;;;;;;19.07;6.77;;;;;;;3.35;100.00;103228.53;5072350;28;20029;-83
2024/01/12 10:14:00;;;;;;;22.48;6.95;;;;;;;3.33;100.00;103230.50;5072578;28;20052;-83
2024/01/12 10:16:29;;;;;;;20.27;7.15;;;;;;;3.33;100.00;103222.44;5072590;28;20472;-83
2024/01/12 10:19:03;;;;;;;23.25;7.30;;;;;;;3.39;100.00;103232.72;5039856;28;20384;-83
2024/01/12 10:21:29;;;;;;;15.90;5.53;;;;;;;3.43;100.00;103234.25;5072486;28;20060;-83
2024/01/12 10:24:02;;;;;;;26.33;7.50;;;;;;;3.44;100.00;103232.41;5055625;28;20032;-83
2024/01/12 10:26:28;;;;;;;20.58;7.28;;;;;;;3.41;100.00;103228.13;5055253;28;20050;-83
2024/01/12 10:28:53;;;;;;;26.15;7.70;;;;;;;3.46;100.00;103238.53;5071897;28;20465;-83
2024/01/12 10:31:19;;;;;;;20.90;6.23;;;;;;;3.50;100.00;103234.69;5038255;28;20048;-83
2024/01/12 10:33:46;;;;;;;18.30;6.18;;;;;;;3.53;100.00;103233.56;5077258;28;20055;-83
2024/01/12 10:36:18;;;;;;;17.35;7.13;;;;;;;3.50;100.00;103237.34;5059677;28;20033;-83
2024/01/12 10:38:45;;;;;;;25.50;7.40;;;;;;;3.53;100.00;103225.53;5078116;28;20048;-85
2024/01/12 10:41:11;;;;;;;21.10;6.97;;;;;;;3.54;100.00;103225.41;5076340;28;20060;-83
2024/01/12 10:43:38;;;;;;;20.25;7.03;;;;;;;3.57;100.00;103219.81;5076107;28;20029;-83
2024/01/12 10:46:22;;;;;;;21.58;6.88;;;;;;;3.53;100.00;103209.41;5042953;28;20032;-83
2024/01/12 10:49:18;;;;;;;18.73;6.63;;;;;;;3.50;100.00;103215.88;5075785;28;20028;-83
2024/01/12 10:52:12;;;;;;;20.00;6.43;;;;;;;3.54;100.00;103205.78;5074945;28;20037;-83
2024/01/12 10:55:02;;;;;;;27.88;7.15;;;;;;;3.53;100.00;103212.09;5076981;28;20499;-83
2024/01/12 10:57:29;;;;;;;19.08;6.97;;;;;;;3.41;100.00;103206.66;5075573;28;20127;-83
2024/01/12 10:59:56;;;;;;;20.63;7.03;;;;;;;3.37;100.00;103207.00;5075789;28;20051;-83
2024/01/12 11:02:21;;;;;;;16.40;7.38;;;;;;;3.35;100.00;103204.41;5059492;28;20114;-83
2024/01/12 11:04:48;;;;;;;22.20;7.40;;;;;;;3.32;100.00;103210.88;5059035;28;20465;-83
2024/01/12 11:07:14;;;;;;;23.38;6.80;;;;;;;3.27;100.00;103210.31;5076618;28;20056;-83
2024/01/12 11:09:42;;;;;;;22.03;6.63;;;;;;;3.26;100.00;103202.38;5058982;28;20468;-84